createdAt,value
2018-03-28T00:00:03.280Z,14.50
2018-03-28T00:02:31.664Z,13.52
2018-03-28T00:05:00.032Z,18.70
2018-03-28T00:07:28.499Z,15.07
2018-03-28T00:09:57.131Z,13.83
2018-03-28T00:12:25.616Z,20.30
2018-03-28T00:14:54.834Z,15.50
2018-03-28T00:17:23.204Z,13.85
2018-03-28T00:19:51.685Z,15.65
2018-03-28T00:22:20.228Z,14.52
2018-03-28T00:24:48.692Z,14.57
2018-03-28T00:27:17.806Z,20.27
2018-03-28T00:29:46.161Z,18.62
2018-03-28T00:32:14.941Z,15.85
2018-03-28T00:37:31.577Z,15.27
2018-03-28T00:39:59.914Z,14.95
2018-03-28T00:42:28.232Z,15.70
2018-03-28T00:44:56.593Z,15.88
2018-03-28T00:47:25.809Z,13.95
2018-03-28T00:49:54.901Z,16.27
2018-03-28T00:52:23.592Z,20.48
2018-03-28T00:54:52.277Z,13.00
2018-03-28T00:57:20.734Z,14.10
2018-03-28T00:59:49.439Z,19.15
2018-03-28T01:02:17.757Z,15.27
2018-03-28T01:04:46.061Z,13.43
2018-03-28T01:07:14.396Z,14.87
2018-03-28T01:09:42.732Z,13.40
2018-03-28T01:12:11.271Z,14.05
2018-03-28T01:14:39.918Z,14.15
2018-03-28T01:17:08.242Z,16.25
2018-03-28T01:19:36.570Z,14.57
2018-03-28T01:22:04.983Z,16.83
2018-03-28T01:24:33.442Z,19.67
2018-03-28T01:27:02.113Z,14.50
2018-03-28T01:29:30.625Z,16.25
2018-03-28T01:31:59.088Z,13.20
2018-03-28T01:34:27.415Z,16.20
2018-03-28T01:36:56.225Z,15.70
2018-03-28T01:39:24.554Z,22.42
2018-03-28T01:41:52.874Z,15.25
2018-03-28T01:44:21.230Z,17.00
2018-03-28T01:46:49.561Z,16.77
2018-03-28T01:49:17.891Z,20.10
2018-03-28T01:51:46.281Z,19.98
2018-03-28T01:54:14.594Z,16.55
2018-03-28T01:56:43.274Z,18.30
2018-03-28T01:59:12.159Z,15.18
2018-03-28T02:01:40.600Z,12.70
2018-03-28T02:04:08.915Z,19.98
2018-03-28T02:06:37.237Z,17.00
2018-03-28T02:09:06.405Z,19.25
2018-03-28T02:11:34.786Z,23.30
2018-03-28T02:16:38.498Z,19.80
2018-03-28T02:19:07.108Z,17.83
2018-03-28T02:21:36.182Z,18.83
2018-03-28T02:24:04.513Z,18.40
2018-03-28T02:26:32.906Z,20.23
2018-03-28T02:29:01.230Z,16.08
2018-03-28T02:31:30.429Z,20.73
2018-03-28T02:33:59.173Z,19.90
2018-03-28T02:36:27.516Z,19.00
2018-03-28T02:38:55.865Z,16.80
2018-03-28T02:41:25.265Z,16.75
2018-03-28T02:43:53.888Z,19.02
2018-03-28T02:46:22.238Z,16.77
2018-03-28T02:48:51.337Z,23.52
2018-03-28T02:51:20.443Z,21.08
2018-03-28T02:53:48.784Z,22.95
2018-03-28T02:56:17.142Z,21.42
2018-03-28T02:58:45.778Z,22.67
2018-03-28T03:01:14.132Z,25.95
2018-03-28T03:03:42.820Z,20.37
2018-03-28T03:06:11.141Z,23.83
2018-03-28T03:08:39.449Z,20.73
2018-03-28T03:11:07.773Z,24.90
2018-03-28T03:13:36.424Z,23.27
2018-03-28T03:16:04.732Z,22.85
2018-03-28T03:18:33.055Z,29.05
2018-03-28T03:21:01.382Z,31.00
2018-03-28T03:23:29.705Z,35.00
2018-03-28T03:25:58.252Z,29.12
2018-03-28T03:28:27.322Z,29.63
2018-03-28T03:30:55.834Z,27.95
2018-03-28T03:33:24.728Z,36.70
2018-03-28T03:35:53.401Z,33.67
2018-03-28T03:38:21.715Z,30.70
2018-03-28T03:40:50.054Z,31.10
2018-03-28T03:43:19.131Z,34.72
2018-03-28T03:45:47.794Z,39.53
2018-03-28T03:48:16.628Z,38.13
2018-03-28T03:50:50.242Z,38.13
2018-03-28T03:53:19.138Z,34.15
2018-03-28T03:55:48.250Z,37.15
2018-03-28T03:58:16.670Z,35.13
2018-03-28T04:00:44.993Z,41.53
2018-03-28T04:03:13.477Z,42.50
2018-03-28T04:05:42.365Z,42.00
2018-03-28T04:08:11.670Z,38.95
2018-03-28T04:10:40.138Z,41.08
2018-03-28T04:13:08.446Z,38.70
2018-03-28T04:15:36.937Z,38.40
2018-03-28T04:18:05.232Z,38.00
2018-03-28T04:20:33.552Z,35.28
2018-03-28T04:23:02.604Z,41.70
2018-03-28T04:25:31.096Z,37.42
2018-03-28T04:27:59.542Z,37.90
2018-03-28T04:30:28.582Z,38.15
2018-03-28T04:32:57.097Z,39.28
2018-03-28T04:35:25.432Z,41.85
2018-03-28T04:37:53.752Z,38.38
2018-03-28T04:40:22.078Z,36.72
2018-03-28T04:42:50.412Z,37.10
2018-03-28T04:45:18.965Z,39.13
2018-03-28T04:47:47.295Z,37.53
2018-03-28T04:50:15.620Z,36.30
2018-03-28T04:52:44.924Z,41.90
2018-03-28T04:55:13.244Z,35.92
2018-03-28T04:57:41.584Z,35.15
2018-03-28T05:00:09.922Z,45.00
2018-03-28T05:02:38.246Z,34.85
2018-03-28T05:05:06.548Z,37.15
2018-03-28T05:07:34.893Z,42.90
2018-03-28T05:10:03.312Z,32.17
2018-03-28T05:12:31.629Z,38.88
2018-03-28T05:15:00.125Z,43.72
2018-03-28T05:17:28.439Z,34.95
2018-03-28T05:19:57.674Z,36.53
2018-03-28T05:22:26.181Z,34.22
2018-03-28T05:24:54.765Z,40.53
2018-03-28T05:27:23.102Z,41.53
2018-03-28T05:29:51.543Z,35.88
2018-03-28T05:32:20.689Z,34.42
2018-03-28T05:34:49.140Z,34.13
2018-03-28T05:37:18.326Z,32.95
2018-03-28T05:39:46.718Z,36.22
2018-03-28T05:42:15.213Z,36.70
2018-03-28T05:44:43.681Z,34.17
2018-03-28T05:47:12.758Z,33.85
2018-03-28T05:49:41.270Z,34.63
2018-03-28T05:52:09.582Z,39.85
2018-03-28T05:54:37.912Z,41.00
2018-03-28T05:57:06.341Z,35.35
2018-03-28T05:59:35.266Z,31.45
2018-03-28T06:02:03.629Z,42.40
2018-03-28T06:04:31.982Z,34.03
2018-03-28T06:07:00.404Z,51.30
2018-03-28T06:09:28.733Z,30.85
2018-03-28T06:11:57.180Z,36.78
2018-03-28T06:14:26.329Z,36.25
2018-03-28T06:16:54.650Z,37.28
2018-03-28T06:19:22.967Z,30.92
2018-03-28T06:21:51.594Z,40.47
2018-03-28T06:24:20.022Z,44.00
2018-03-28T06:26:48.348Z,47.50
2018-03-28T06:29:16.690Z,37.30
2018-03-28T06:31:45.314Z,44.25
2018-03-28T06:34:13.927Z,35.17
2018-03-28T06:36:43.066Z,39.13
2018-03-28T06:39:11.520Z,35.35
2018-03-28T06:41:40.589Z,37.58
2018-03-28T06:44:10.797Z,38.08
2018-03-28T06:46:39.245Z,37.50
2018-03-28T06:49:07.696Z,40.33
2018-03-28T06:51:36.854Z,36.97
2018-03-28T06:54:05.180Z,41.05
2018-03-28T06:56:34.417Z,39.55
2018-03-28T06:59:02.754Z,42.33
2018-03-28T07:01:31.836Z,34.47
2018-03-28T07:04:00.913Z,36.22
2018-03-28T07:06:29.531Z,40.35
2018-03-28T07:08:58.616Z,32.92
2018-03-28T07:11:27.722Z,36.60
2018-03-28T07:13:56.405Z,33.28
2018-03-28T07:16:24.901Z,38.45
2018-03-28T07:18:53.377Z,35.75
2018-03-28T07:21:21.714Z,34.97
2018-03-28T07:23:50.133Z,40.03
2018-03-28T07:26:19.211Z,40.83
2018-03-28T07:28:47.916Z,37.65
2018-03-28T07:31:16.441Z,35.50
2018-03-28T07:33:44.913Z,38.38
2018-03-28T07:36:13.514Z,43.78
2018-03-28T07:38:41.865Z,38.85
2018-03-28T07:41:10.345Z,32.03
2018-03-28T07:43:38.773Z,34.10
2018-03-28T07:46:07.085Z,33.42
2018-03-28T07:48:36.177Z,37.22
2018-03-28T07:51:04.869Z,36.88
2018-03-28T07:53:33.200Z,36.28
2018-03-28T07:56:01.663Z,44.47
2018-03-28T07:58:30.084Z,36.00
2018-03-28T08:00:58.629Z,36.58
2018-03-28T08:03:27.083Z,35.75
2018-03-28T08:05:55.445Z,38.75
2018-03-28T08:08:24.826Z,38.28
2018-03-28T08:10:53.134Z,41.37
2018-03-28T08:13:21.813Z,39.28
2018-03-28T08:15:50.482Z,45.47
2018-03-28T08:18:19.184Z,39.55
2018-03-28T08:20:47.702Z,39.15
2018-03-28T08:23:16.009Z,35.97
2018-03-28T08:25:44.421Z,39.70
2018-03-28T08:28:12.769Z,42.90
2018-03-28T08:30:41.585Z,51.20
2018-03-28T08:33:10.278Z,47.67
2018-03-28T08:35:39.150Z,46.03
2018-03-28T08:38:07.664Z,59.03
2018-03-28T08:40:36.742Z,46.17
2018-03-28T08:43:05.418Z,44.95
2018-03-28T08:45:33.939Z,51.40
2018-03-28T08:48:02.238Z,52.08
2018-03-28T08:50:31.090Z,45.50
2018-03-28T08:52:59.682Z,46.20
2018-03-28T08:55:28.892Z,47.58
2018-03-28T08:57:57.552Z,54.63
2018-03-28T09:00:26.104Z,51.42
2018-03-28T09:02:55.000Z,53.60
2018-03-28T09:05:23.359Z,53.35
2018-03-28T09:07:51.692Z,51.83
2018-03-28T09:10:20.785Z,46.95
2018-03-28T09:12:49.251Z,48.40
2018-03-28T09:15:17.593Z,55.30
2018-03-28T09:17:46.079Z,43.83
2018-03-28T09:20:14.698Z,43.05
2018-03-28T09:22:43.007Z,48.35
2018-03-28T09:25:11.473Z,50.30
2018-03-28T09:27:39.989Z,48.20
2018-03-28T09:30:08.318Z,47.70
2018-03-28T09:32:36.742Z,45.17
2018-03-28T09:35:05.089Z,43.75
2018-03-28T09:37:34.340Z,50.78
2018-03-28T09:40:02.758Z,39.58
2018-03-28T09:42:32.068Z,42.00
2018-03-28T09:45:01.164Z,42.97
2018-03-28T09:47:29.689Z,43.35
2018-03-28T09:49:58.159Z,45.22
2018-03-28T09:52:26.628Z,39.80
2018-03-28T09:54:55.115Z,40.65
2018-03-28T09:57:23.548Z,47.15
2018-03-28T09:59:52.792Z,47.47
2018-03-28T10:02:26.865Z,43.92
2018-03-28T10:05:05.294Z,44.28
2018-03-28T10:07:34.693Z,46.35
2018-03-28T10:10:03.220Z,45.95
2018-03-28T10:12:31.547Z,41.85
2018-03-28T10:15:00.183Z,46.67
2018-03-28T10:17:28.522Z,42.17
2018-03-28T10:19:56.868Z,44.03
2018-03-28T10:22:25.594Z,50.17
2018-03-28T10:24:54.108Z,46.72
2018-03-28T10:27:22.504Z,47.92
2018-03-28T10:29:50.885Z,51.10
2018-03-28T10:32:19.334Z,51.15
2018-03-28T10:34:48.464Z,47.38
2018-03-28T10:37:16.942Z,53.60
2018-03-28T10:39:45.355Z,49.88
2018-03-28T10:42:13.688Z,54.53
2018-03-28T10:44:42.592Z,45.28
2018-03-28T10:47:11.006Z,46.90
2018-03-28T10:49:39.532Z,45.60
2018-03-28T10:52:08.002Z,47.22
2018-03-28T10:54:36.594Z,46.45
2018-03-28T10:57:05.999Z,48.63
2018-03-28T10:59:35.279Z,51.08
2018-03-28T11:02:03.981Z,46.97
2018-03-28T11:04:32.478Z,49.65
2018-03-28T11:07:01.765Z,47.38
2018-03-28T11:09:30.098Z,48.80
2018-03-28T11:11:58.428Z,50.08
2018-03-28T11:14:26.968Z,52.28
2018-03-28T11:16:55.274Z,50.58
2018-03-28T11:19:23.780Z,53.05
2018-03-28T11:21:52.544Z,45.83
2018-03-28T11:24:21.714Z,46.50
2018-03-28T11:26:50.060Z,44.97
2018-03-28T11:29:18.904Z,51.70
2018-03-28T11:31:47.243Z,43.38
2018-03-28T11:34:15.993Z,43.70
2018-03-28T11:36:45.498Z,48.05
2018-03-28T11:39:14.284Z,48.92
2018-03-28T11:41:42.757Z,47.30
2018-03-28T11:44:12.090Z,48.83
2018-03-28T11:46:40.588Z,50.88
2018-03-28T11:49:08.932Z,44.65
2018-03-28T11:51:37.900Z,54.47
2018-03-28T11:54:06.237Z,43.90
2018-03-28T11:56:34.586Z,45.92
2018-03-28T11:59:03.138Z,42.20
2018-03-28T12:01:31.460Z,44.40
2018-03-28T12:03:59.969Z,43.22
2018-03-28T12:06:28.326Z,47.70
2018-03-28T12:08:56.980Z,44.47
2018-03-28T12:11:26.159Z,41.25
2018-03-28T12:13:54.793Z,43.15
2018-03-28T12:18:57.772Z,46.47
2018-03-28T12:21:26.252Z,40.72
2018-03-28T12:23:54.617Z,41.35
2018-03-28T12:26:24.011Z,42.88
2018-03-28T12:28:52.535Z,41.17
2018-03-28T12:31:21.003Z,40.63
2018-03-28T12:33:50.404Z,39.05
2018-03-28T12:36:18.779Z,43.95
2018-03-28T12:38:47.150Z,39.88
2018-03-28T12:41:16.256Z,36.05
2018-03-28T12:43:45.387Z,41.33
2018-03-28T12:46:13.916Z,34.33
2018-03-28T12:48:42.754Z,28.87
2018-03-28T12:51:11.296Z,37.60
2018-03-28T12:53:39.800Z,38.03
2018-03-28T12:56:08.683Z,37.35
2018-03-28T12:58:37.005Z,34.60
2018-03-28T13:01:05.437Z,34.47
2018-03-28T13:03:33.806Z,36.25
2018-03-28T13:06:02.235Z,29.63
2018-03-28T13:08:30.871Z,29.83
2018-03-28T13:10:59.787Z,31.77
2018-03-28T13:13:28.122Z,37.53
2018-03-28T13:15:56.572Z,31.60
2018-03-28T13:18:25.418Z,30.67
2018-03-28T13:20:53.741Z,37.60
2018-03-28T13:23:22.044Z,33.05
2018-03-28T13:25:50.428Z,38.67
2018-03-28T13:28:18.775Z,38.08
2018-03-28T13:30:47.122Z,36.17
2018-03-28T13:33:16.274Z,36.00
2018-03-28T13:35:44.612Z,43.13
2018-03-28T13:38:13.081Z,38.38
2018-03-28T13:40:41.949Z,34.50
2018-03-28T13:43:10.642Z,37.40
2018-03-28T13:45:38.949Z,38.15
2018-03-28T13:48:07.629Z,39.58
2018-03-28T13:50:35.964Z,39.28
2018-03-28T13:53:04.280Z,38.35
2018-03-28T13:55:33.407Z,39.33
2018-03-28T13:58:01.914Z,44.10
2018-03-28T14:00:30.257Z,41.35
2018-03-28T14:02:59.129Z,45.70
2018-03-28T14:05:27.476Z,43.67
2018-03-28T14:07:56.119Z,42.55
2018-03-28T14:10:24.473Z,46.85
2018-03-28T14:12:53.689Z,43.28
2018-03-28T14:15:22.096Z,47.72
2018-03-28T14:17:50.429Z,42.28
2018-03-28T14:20:18.735Z,46.13
2018-03-28T14:22:47.202Z,49.63
2018-03-28T14:25:15.838Z,53.15
2018-03-28T14:27:44.182Z,47.50
2018-03-28T14:30:12.522Z,45.17
2018-03-28T14:32:40.935Z,46.25
2018-03-28T14:35:09.276Z,59.13
2018-03-28T14:37:38.358Z,48.42
2018-03-28T14:40:06.704Z,49.33
2018-03-28T14:42:35.222Z,49.85
2018-03-28T14:45:03.536Z,45.60
2018-03-28T14:47:32.399Z,49.63
2018-03-28T14:50:00.703Z,47.92
2018-03-28T14:52:28.994Z,50.08
2018-03-28T14:54:57.845Z,47.47
2018-03-28T14:57:26.182Z,49.22
2018-03-28T14:59:54.662Z,46.67
2018-03-28T15:02:24.120Z,49.15
2018-03-28T15:04:52.456Z,55.42
2018-03-28T15:07:20.791Z,48.97
2018-03-28T15:09:50.273Z,51.28
2018-03-28T15:12:18.838Z,48.15
2018-03-28T15:14:47.156Z,47.90
2018-03-28T15:17:15.670Z,50.60
2018-03-28T15:19:43.985Z,51.20
2018-03-28T15:22:12.298Z,50.72
2018-03-28T15:24:40.864Z,54.15
2018-03-28T15:27:09.454Z,57.50
2018-03-28T15:29:38.834Z,50.10
2018-03-28T15:32:07.735Z,49.28
2018-03-28T15:34:36.270Z,45.83
2018-03-28T15:37:04.813Z,50.92
2018-03-28T15:39:33.911Z,50.40
2018-03-28T15:42:03.825Z,53.47
2018-03-28T15:44:32.956Z,58.55
2018-03-28T15:47:01.532Z,59.67
2018-03-28T15:49:30.006Z,57.00
2018-03-28T15:51:58.320Z,54.13
2018-03-28T15:54:27.138Z,49.83
2018-03-28T15:56:55.656Z,56.67
2018-03-28T15:59:24.321Z,65.07
2018-03-28T16:01:52.813Z,62.28
2018-03-28T16:04:21.132Z,58.60
2018-03-28T16:06:49.741Z,62.67
2018-03-28T16:09:18.171Z,66.35
2018-03-28T16:11:46.734Z,66.20
2018-03-28T16:14:15.430Z,64.00
2018-03-28T16:16:44.014Z,71.80
2018-03-28T16:19:13.242Z,65.70
2018-03-28T16:21:42.337Z,70.32
2018-03-28T16:24:10.685Z,61.35
2018-03-28T16:26:39.095Z,69.35
2018-03-28T16:29:07.542Z,65.65
2018-03-28T16:31:35.880Z,62.22
2018-03-28T16:34:05.007Z,72.12
2018-03-28T16:36:34.094Z,59.70
2018-03-28T16:39:02.664Z,65.10
2018-03-28T16:41:31.022Z,64.82
2018-03-28T16:43:59.337Z,67.00
2018-03-28T16:46:27.918Z,70.12
2018-03-28T16:48:56.225Z,64.25
2018-03-28T16:51:24.577Z,67.53
2018-03-28T16:53:52.934Z,61.20
2018-03-28T16:56:21.231Z,66.43
2018-03-28T16:58:50.726Z,67.68
2018-03-28T17:01:19.360Z,57.55
2018-03-28T17:03:47.774Z,59.45
2018-03-28T17:06:16.208Z,60.80
2018-03-28T17:08:44.713Z,55.42
2018-03-28T17:11:13.023Z,59.42
2018-03-28T17:13:41.363Z,61.00
2018-03-28T17:16:09.760Z,62.78
2018-03-28T17:18:38.230Z,54.97
2018-03-28T17:21:06.562Z,57.45
2018-03-28T17:23:35.198Z,56.35
2018-03-28T17:26:04.096Z,59.25
2018-03-28T17:28:32.497Z,58.42
2018-03-28T17:31:00.879Z,56.33
2018-03-28T17:33:29.234Z,51.65
2018-03-28T17:35:57.779Z,53.03
2018-03-28T17:38:26.137Z,51.70
2018-03-28T17:40:54.444Z,53.97
2018-03-28T17:43:22.745Z,50.80
2018-03-28T17:45:51.522Z,49.97
2018-03-28T17:48:19.899Z,50.75
2018-03-28T17:50:48.221Z,51.67
2018-03-28T17:53:16.589Z,47.15
2018-03-28T17:55:44.908Z,52.22
2018-03-28T17:58:14.000Z,51.67
2018-03-28T18:00:43.098Z,48.05
2018-03-28T18:03:12.225Z,58.75
2018-03-28T18:05:40.692Z,53.95
2018-03-28T18:08:10.300Z,47.00
2018-03-28T18:10:39.418Z,51.55
2018-03-28T18:13:07.876Z,50.70
2018-03-28T18:15:36.382Z,53.33
2018-03-28T18:18:04.695Z,49.33
2018-03-28T18:20:33.310Z,47.10
2018-03-28T18:23:01.848Z,47.20
2018-03-28T18:25:30.191Z,48.87
2018-03-28T18:27:58.725Z,58.42
2018-03-28T18:30:27.655Z,54.20
2018-03-28T18:32:56.074Z,45.17
2018-03-28T18:35:28.713Z,44.97
2018-03-28T18:37:57.205Z,48.03
2018-03-28T18:40:25.633Z,46.78
2018-03-28T18:42:54.023Z,47.80
2018-03-28T18:45:22.394Z,46.78
2018-03-28T18:47:50.932Z,47.08
2018-03-28T18:50:19.606Z,50.65
2018-03-28T18:52:47.950Z,54.88
2018-03-28T18:55:16.293Z,47.78
2018-03-28T18:57:44.638Z,43.42
2018-03-28T19:00:16.044Z,46.10
2018-03-28T19:02:47.963Z,47.85
2018-03-28T19:05:16.857Z,42.75
2018-03-28T19:07:45.188Z,45.25
2018-03-28T19:10:13.712Z,39.47
2018-03-28T19:12:42.855Z,43.53
2018-03-28T19:15:11.176Z,46.45
2018-03-28T19:17:40.299Z,39.17
2018-03-28T19:20:08.676Z,44.90
2018-03-28T19:22:36.985Z,40.72
2018-03-28T19:25:05.356Z,37.05
2018-03-28T19:27:34.066Z,39.58
2018-03-28T19:30:02.369Z,43.78
2018-03-28T19:32:32.085Z,40.83
2018-03-28T19:35:01.237Z,35.42
2018-03-28T19:37:29.580Z,37.90
2018-03-28T19:39:58.235Z,40.00
2018-03-28T19:42:26.779Z,37.35
2018-03-28T19:44:55.128Z,35.50
2018-03-28T19:47:24.263Z,39.13
2018-03-28T19:49:52.583Z,40.70
2018-03-28T19:52:20.869Z,36.40
2018-03-28T19:54:49.949Z,33.95
2018-03-28T19:57:20.081Z,40.35
2018-03-28T19:59:49.216Z,37.70
2018-03-28T20:02:17.570Z,36.70
2018-03-28T20:04:45.932Z,36.97
2018-03-28T20:07:14.248Z,33.80
2018-03-28T20:09:42.949Z,33.28
2018-03-28T20:12:11.276Z,34.38
2018-03-28T20:14:40.392Z,33.15
2018-03-28T20:17:08.944Z,32.97
2018-03-28T20:19:37.308Z,31.60
2018-03-28T20:22:05.737Z,32.60
2018-03-28T20:24:34.259Z,31.55
2018-03-28T20:27:02.703Z,28.33
2018-03-28T20:29:31.366Z,34.97
2018-03-28T20:31:59.731Z,27.27
2018-03-28T20:34:28.353Z,32.60
2018-03-28T20:36:56.798Z,30.52
2018-03-28T20:39:25.308Z,30.90
2018-03-28T20:41:53.647Z,28.05
2018-03-28T20:44:21.959Z,34.97
2018-03-28T20:46:51.066Z,35.15
2018-03-28T20:49:19.401Z,31.12
2018-03-28T20:51:47.733Z,32.92
2018-03-28T20:54:16.093Z,31.30
2018-03-28T20:56:44.441Z,30.23
2018-03-28T20:59:14.276Z,29.23
2018-03-28T21:01:44.098Z,32.88
2018-03-28T21:04:12.476Z,32.40
2018-03-28T21:06:41.679Z,30.30
2018-03-28T21:09:10.785Z,29.48
2018-03-28T21:11:39.410Z,27.23
2018-03-28T21:14:08.740Z,28.87
2018-03-28T21:16:37.134Z,32.50
2018-03-28T21:19:06.583Z,31.10
2018-03-28T21:21:34.927Z,28.65
2018-03-28T21:24:03.933Z,32.33
2018-03-28T21:26:32.298Z,26.65
2018-03-28T21:29:00.610Z,30.12
2018-03-28T21:31:33.608Z,27.87
2018-03-28T21:34:01.956Z,27.65
2018-03-28T21:36:31.776Z,28.73
2018-03-28T21:39:00.349Z,27.70
2018-03-28T21:41:30.324Z,29.83
2018-03-28T21:43:58.656Z,26.85
2018-03-28T21:46:27.908Z,32.25
2018-03-28T21:48:56.212Z,31.87
2018-03-28T21:51:27.579Z,28.38
2018-03-28T21:53:56.344Z,28.58
2018-03-28T21:56:24.828Z,31.45
2018-03-28T21:58:53.121Z,28.35
2018-03-28T22:01:21.462Z,28.27
2018-03-28T22:03:49.807Z,27.20
2018-03-28T22:06:18.118Z,26.60
2018-03-28T22:08:46.699Z,28.45
2018-03-28T22:11:15.125Z,24.73
2018-03-28T22:13:43.522Z,26.02
2018-03-28T22:16:12.194Z,25.98
2018-03-28T22:18:40.513Z,24.10
2018-03-28T22:21:10.642Z,28.45
2018-03-28T22:23:38.960Z,23.23
2018-03-28T22:26:07.277Z,23.33
2018-03-28T22:28:35.575Z,22.35
2018-03-28T22:31:05.100Z,21.58
2018-03-28T22:33:34.150Z,29.35
2018-03-28T22:36:02.471Z,18.15
2018-03-28T22:38:31.723Z,18.87
2018-03-28T22:41:00.223Z,22.87
2018-03-28T22:43:28.512Z,23.85
2018-03-28T22:45:56.946Z,15.45
2018-03-28T22:48:25.339Z,18.15
2018-03-28T22:50:53.893Z,18.42
2018-03-28T22:53:22.282Z,17.70
2018-03-28T22:55:50.850Z,17.83
2018-03-28T22:58:20.045Z,18.58
2018-03-28T23:00:49.199Z,20.58
2018-03-28T23:03:17.553Z,18.45
2018-03-28T23:05:46.000Z,19.08
2018-03-28T23:08:15.121Z,20.23
2018-03-28T23:10:45.418Z,19.35
2018-03-28T23:13:14.702Z,20.05
2018-03-28T23:15:43.116Z,19.33
2018-03-28T23:18:11.884Z,15.45
2018-03-28T23:20:40.368Z,20.55
2018-03-28T23:23:08.707Z,18.92
2018-03-28T23:25:37.032Z,22.35
2018-03-28T23:28:06.254Z,16.95
2018-03-28T23:30:34.772Z,18.10
2018-03-28T23:33:03.987Z,16.85
2018-03-28T23:35:33.271Z,16.62
2018-03-28T23:38:01.694Z,16.75
2018-03-28T23:40:30.763Z,16.50
2018-03-28T23:42:59.078Z,18.27
2018-03-28T23:45:27.438Z,19.60
2018-03-28T23:47:55.768Z,16.77
2018-03-28T23:50:24.077Z,14.68
2018-03-28T23:52:52.410Z,17.00
2018-03-28T23:55:20.726Z,16.92
2018-03-28T23:57:49.214Z,15.95
